Time;durP1;ratioP1;P1;durP2;ratioP2;P2;SDS_P1;SDS_P2;PMS_P1;PMS_P2;Temp;Humidity;BMP_temperature;BMP_pressure;BME280_temperature;BME280_humidity;BME280_pressure;Samples;Min_cycle;Max_cycle;Signal;HPM_P1;HPM_P2
2022/02/17 00:00:26;;;;;;;485.03;329.90;;;;;;;8.70;100.00;97451.47;5019761;28;20458;-61
2022/02/17 00:02:53;;;;;;;488.37;347.60;;;;;;;8.87;100.00;97445.88;5020871;28;20045;-60
2022/02/17 00:05:20;;;;;;;485.90;333.23;;;;;;;8.94;100.00;97427.75;5023929;28;20111;-60
2022/02/17 00:07:46;;;;;;;488.33;346.23;;;;;;;8.98;100.00;97431.88;5024096;28;20053;-60
2022/02/17 00:10:12;;;;;;;487.53;343.93;;;;;;;9.05;100.00;97432.50;5021028;28;20049;-62
2022/02/17 00:12:37;;;;;;;488.33;345.20;;;;;;;9.08;100.00;97424.75;5025676;28;20101;-59
2022/02/17 00:15:04;;;;;;;487.93;340.77;;;;;;;9.09;100.00;97424.69;5025647;28;20551;-60
2022/02/17 00:17:29;;;;;;;487.87;343.77;;;;;;;9.11;100.00;97439.97;5026110;28;20041;-59
2022/02/17 00:19:55;;;;;;;488.03;343.27;;;;;;;9.10;100.00;97439.16;5022248;28;20041;-59
2022/02/17 00:22:20;;;;;;;488.83;346.00;;;;;;;9.10;100.00;97443.41;5021706;28;20052;-60
2022/02/17 00:24:46;;;;;;;487.93;343.43;;;;;;;9.10;100.00;97439.16;5022492;28;20041;-60
2022/02/17 00:27:11;;;;;;;489.77;351.83;;;;;;;9.13;100.00;97425.41;5020267;28;20058;-61
2022/02/17 00:29:37;;;;;;;491.93;351.57;;;;;;;9.13;100.00;97435.63;5018195;28;20140;-61
2022/02/17 00:32:03;;;;;;;489.87;351.67;;;;;;;9.18;100.00;97437.16;5021623;28;20049;-61
2022/02/17 00:34:28;;;;;;;490.57;354.60;;;;;;;9.29;100.00;97436.84;5022901;28;20047;-60
2022/02/17 00:36:53;;;;;;;489.80;348.03;;;;;;;9.31;100.00;97434.19;4991048;28;20058;-60
2022/02/17 00:39:20;;;;;;;490.80;350.87;;;;;;;9.26;100.00;97428.41;4982414;28;20038;-60
2022/02/17 00:41:46;;;;;;;490.90;346.57;;;;;;;9.19;100.00;97425.22;4989610;28;20072;-62
2022/02/17 00:44:13;;;;;;;490.53;349.53;;;;;;;9.13;100.00;97426.25;4987100;28;20030;-60
2022/02/17 00:46:39;;;;;;;489.00;350.67;;;;;;;9.16;100.00;97430.44;4983167;28;20038;-61
2022/02/17 00:49:04;;;;;;;490.50;356.57;;;;;;;9.19;100.00;97427.78;4984421;28;20034;-59
2022/02/17 00:51:30;;;;;;;491.57;354.40;;;;;;;9.10;100.00;97416.13;4981097;28;20939;-60
2022/02/17 00:53:55;;;;;;;497.10;351.03;;;;;;;9.19;100.00;97430.34;4986420;28;20074;-60
2022/02/17 00:56:21;;;;;;;489.97;350.87;;;;;;;9.18;100.00;97433.78;4981391;28;20038;-60
2022/02/17 00:58:46;;;;;;;490.73;350.87;;;;;;;9.06;100.00;97406.06;4983265;28;20053;-60
2022/02/17 01:01:11;;;;;;;489.00;348.37;;;;;;;9.11;100.00;97415.25;4985583;28;20053;-60
2022/02/17 01:03:37;;;;;;;488.73;347.23;;;;;;;8.98;100.00;97420.81;4985723;28;20072;-58
2022/02/17 01:06:02;;;;;;;489.73;345.43;;;;;;;8.97;100.00;97424.25;4983153;28;20050;-58
2022/02/17 01:08:28;;;;;;;487.47;340.70;;;;;;;8.82;100.00;97414.53;4985010;28;20042;-61
2022/02/17 01:10:54;;;;;;;489.23;348.00;;;;;;;8.71;100.00;97407.16;4985425;28;20038;-60
2022/02/17 01:13:22;;;;;;;487.70;342.07;;;;;;;8.64;100.00;97395.47;4985615;28;20126;-60
2022/02/17 01:15:48;;;;;;;487.13;338.30;;;;;;;8.46;100.00;97386.66;4981796;28;20049;-59
2022/02/17 01:18:13;;;;;;;484.60;329.97;;;;;;;8.44;100.00;97385.88;4982902;28;20030;-60
2022/02/17 01:20:40;;;;;;;484.57;327.57;;;;;;;8.43;100.00;97375.72;4987358;28;20218;-58
2022/02/17 01:23:06;;;;;;;483.53;327.67;;;;;;;8.32;100.00;97363.25;4984878;28;20803;-60
2022/02/17 01:25:31;;;;;;;483.90;325.03;;;;;;;8.19;100.00;97355.09;4981127;28;20049;-60
2022/02/17 01:27:57;;;;;;;481.10;315.00;;;;;;;8.09;100.00;97346.06;4985116;28;20039;-60
2022/02/17 01:30:23;;;;;;;483.10;318.03;;;;;;;7.99;100.00;97347.19;4988066;28;20042;-60
2022/02/17 01:32:49;;;;;;;481.73;309.33;;;;;;;8.02;100.00;97346.28;4986987;28;20070;-60
2022/02/17 01:35:14;;;;;;;482.50;313.87;;;;;;;8.05;100.00;97325.78;4999266;28;20042;-60
2022/02/17 01:37:41;;;;;;;482.73;311.87;;;;;;;8.04;100.00;97326.66;5001589;28;20373;-61
2022/02/17 01:40:07;;;;;;;482.33;317.60;;;;;;;8.04;100.00;97324.94;5005408;28;20034;-61
2022/02/17 01:42:32;;;;;;;482.17;309.80;;;;;;;8.17;100.00;97321.13;5002074;28;20345;-61
2022/02/17 01:45:03;;;;;;;479.07;302.47;;;;;;;8.15;100.00;97319.50;5000670;28;20844;-60
2022/02/17 01:47:28;;;;;;;478.67;301.03;;;;;;;8.17;100.00;97321.13;5005365;28;20043;-60
2022/02/17 01:49:53;;;;;;;481.93;309.77;;;;;;;8.20;100.00;97331.25;4998297;28;20069;-61
2022/02/17 01:52:19;;;;;;;481.63;309.37;;;;;;;8.13;100.00;97322.13;4998893;28;20042;-60
2022/02/17 01:54:47;;;;;;;479.77;301.23;;;;;;;8.11;100.00;97316.19;5001095;28;20029;-60
2022/02/17 01:57:16;;;;;;;478.30;302.23;;;;;;;8.23;100.00;97315.00;5002887;28;20045;-59
2022/02/17 01:59:44;;;;;;;479.17;301.60;;;;;;;8.30;100.00;97315.69;5003668;28;20125;-60
2022/02/17 02:02:09;;;;;;;483.67;321.90;;;;;;;8.37;100.00;97301.81;5004256;28;20040;-60
2022/02/17 02:04:35;;;;;;;480.50;308.40;;;;;;;8.34;100.00;97291.72;5001375;28;20061;-60
2022/02/17 02:07:01;;;;;;;482.63;310.50;;;;;;;8.32;100.00;97289.22;5003366;28;20061;-59
2022/02/17 02:09:27;;;;;;;481.10;312.23;;;;;;;8.40;100.00;97282.13;5002549;28;20042;-60
2022/02/17 02:11:52;;;;;;;482.57;317.87;;;;;;;8.39;100.00;97274.53;5005935;28;20077;-60
2022/02/17 02:14:18;;;;;;;482.20;316.03;;;;;;;8.53;100.00;97274.94;5007677;28;20041;-60
2022/02/17 02:16:45;;;;;;;483.00;317.77;;;;;;;8.47;100.00;97262.34;5011386;28;20041;-59
2022/02/17 02:19:12;;;;;;;482.77;311.20;;;;;;;8.44;100.00;97257.34;5012532;28;20073;-59
2022/02/17 02:21:37;;;;;;;480.77;313.30;;;;;;;8.51;100.00;97244.34;5012418;28;20049;-59
2022/02/17 02:24:03;;;;;;;481.30;314.10;;;;;;;8.48;100.00;97235.94;5008433;28;20030;-62
2022/02/17 02:26:29;;;;;;;479.53;307.53;;;;;;;8.48;100.00;97224.00;5000446;28;20396;-61
2022/02/17 02:28:55;;;;;;;480.07;311.30;;;;;;;8.53;100.00;97234.88;5004909;28;20050;-61
2022/02/17 02:31:22;;;;;;;481.53;306.03;;;;;;;8.52;100.00;97234.94;5000342;28;20045;-63
2022/02/17 02:33:48;;;;;;;480.90;311.97;;;;;;;8.56;100.00;97222.03;5000837;28;20112;-61
2022/02/17 02:36:13;;;;;;;480.23;306.33;;;;;;;8.59;100.00;97211.69;5001929;28;20054;-61
2022/02/17 02:38:39;;;;;;;478.97;301.50;;;;;;;8.78;100.00;97201.69;5005818;28;20319;-60
2022/02/17 02:41:04;;;;;;;480.40;308.40;;;;;;;8.79;100.00;97170.13;5001324;28;20132;-61
2022/02/17 02:43:30;;;;;;;480.13;304.83;;;;;;;8.80;100.00;97184.56;5004997;28;20053;-60
2022/02/17 02:45:55;;;;;;;479.77;306.57;;;;;;;8.86;100.00;97174.16;5007151;28;20085;-60
2022/02/17 02:48:21;;;;;;;481.07;311.73;;;;;;;8.92;100.00;97176.47;5007293;28;20080;-59
2022/02/17 02:50:46;;;;;;;479.37;309.67;;;;;;;8.85;100.00;97189.53;5004948;28;20053;-61
2022/02/17 02:53:20;;;;;;;482.70;320.90;;;;;;;8.90;100.00;97182.53;5005518;28;20041;-60
2022/02/17 02:55:47;;;;;;;483.47;321.20;;;;;;;8.88;100.00;97205.56;5004699;28;20042;-60
2022/02/17 02:58:14;;;;;;;479.20;311.83;;;;;;;8.91;100.00;97176.53;5006326;28;20038;-61
2022/02/17 03:00:42;;;;;;;482.27;317.43;;;;;;;8.92;100.00;97188.41;5005142;28;20038;-60
2022/02/17 03:03:07;;;;;;;482.93;318.47;;;;;;;8.92;100.00;97194.34;5001426;28;20042;-60
2022/02/17 03:05:33;;;;;;;482.60;318.43;;;;;;;8.92;100.00;97194.34;5007198;28;20479;-60
2022/02/17 03:07:58;;;;;;;486.63;327.17;;;;;;;8.96;100.00;97187.41;5005600;28;20380;-60
2022/02/17 03:10:24;;;;;;;483.37;326.37;;;;;;;9.01;100.00;97191.47;5003588;28;20120;-60
2022/02/17 03:12:49;;;;;;;484.70;329.77;;;;;;;8.98;100.00;97185.66;5004255;28;20053;-61
2022/02/17 03:15:15;;;;;;;485.33;328.77;;;;;;;9.05;100.00;97182.81;5003568;28;20480;-59
2022/02/17 03:17:40;;;;;;;485.57;334.37;;;;;;;9.03;100.00;97171.00;5000837;28;20046;-57
2022/02/17 03:20:09;;;;;;;485.43;335.00;;;;;;;9.13;100.00;97174.84;5003114;28;20064;-59
2022/02/17 03:22:39;;;;;;;484.20;335.37;;;;;;;9.12;100.00;97163.78;5003300;28;20496;-59
2022/02/17 03:25:09;;;;;;;485.50;336.20;;;;;;;9.17;100.00;97132.94;5005143;28;20038;-59
2022/02/17 03:27:35;;;;;;;485.70;340.63;;;;;;;9.13;100.00;97150.13;5001909;28;20761;-60
2022/02/17 03:30:01;;;;;;;489.03;346.60;;;;;;;9.27;100.00;97129.16;5001185;28;20452;-59
2022/02/17 03:32:27;;;;;;;485.77;336.87;;;;;;;9.31;100.00;97114.53;5005507;28;20050;-60
2022/02/17 03:34:53;;;;;;;487.83;343.77;;;;;;;9.43;100.00;97108.94;5006120;28;20038;-57
2022/02/17 03:37:19;;;;;;;487.37;339.67;;;;;;;9.47;100.00;97113.03;5003617;28;20108;-58
2022/02/17 03:39:45;;;;;;;487.03;342.97;;;;;;;9.62;100.00;97118.41;5003772;28;20744;-58
2022/02/17 03:42:10;;;;;;;487.23;341.90;;;;;;;9.62;100.00;97110.75;5005181;28;20100;-59
2022/02/17 03:44:35;;;;;;;488.43;349.53;;;;;;;9.65;100.00;97112.34;5006634;28;20032;-58
2022/02/17 03:47:01;;;;;;;490.33;355.77;;;;;;;9.72;100.00;97126.53;5005550;28;20276;-59
2022/02/17 03:49:26;;;;;;;489.90;356.53;;;;;;;9.74;100.00;97121.38;5003128;28;20783;-59
2022/02/17 03:51:52;;;;;;;490.47;358.20;;;;;;;9.73;100.00;97117.13;5007235;28;20100;-58
2022/02/17 03:54:18;;;;;;;491.13;363.80;;;;;;;9.63;100.00;97116.69;5006385;28;20049;-60
2022/02/17 03:56:44;;;;;;;491.00;354.67;;;;;;;9.71;100.00;97114.66;5002536;28;20563;-59
2022/02/17 03:59:10;;;;;;;490.03;362.20;;;;;;;9.61;100.00;97088.59;5003893;28;20124;-59
2022/02/17 04:01:37;;;;;;;489.80;361.67;;;;;;;9.69;100.00;97106.19;5006138;28;20037;-59
2022/02/17 04:04:06;;;;;;;491.90;364.83;;;;;;;9.69;100.00;97093.41;5004672;28;20044;-59
2022/02/17 04:06:31;;;;;;;493.10;366.77;;;;;;;9.91;100.00;97078.00;5004477;28;20276;-59
2022/02/17 04:08:57;;;;;;;492.20;367.50;;;;;;;9.95;100.00;97069.31;5005256;28;20049;-59
2022/02/17 04:11:23;;;;;;;493.80;372.23;;;;;;;9.91;100.00;97094.19;5007093;28;20058;-59
2022/02/17 04:13:49;;;;;;;493.33;366.97;;;;;;;9.92;100.00;97088.19;5003523;28;20037;-60
2022/02/17 04:16:16;;;;;;;492.20;376.00;;;;;;;10.06;100.00;97075.63;5000775;28;20057;-61
2022/02/17 04:18:42;;;;;;;494.73;380.80;;;;;;;10.12;100.00;97089.91;5003884;28;20043;-60
2022/02/17 04:21:08;;;;;;;494.77;376.73;;;;;;;10.13;100.00;97089.03;5005933;28;20048;-61
2022/02/17 04:23:34;;;;;;;496.33;383.50;;;;;;;10.21;100.00;97071.66;5003254;28;20092;-61
2022/02/17 04:26:00;;;;;;;497.13;389.77;;;;;;;10.23;100.00;97074.13;5001929;28;20056;-60
2022/02/17 04:28:25;;;;;;;497.53;392.77;;;;;;;10.24;100.00;97073.22;5003285;28;20042;-60
2022/02/17 04:30:51;;;;;;;496.57;390.00;;;;;;;10.19;100.00;97052.09;5004770;28;20141;-61
2022/02/17 04:33:16;;;;;;;495.20;382.50;;;;;;;10.15;100.00;97047.97;4993284;28;20054;-60
2022/02/17 04:35:42;;;;;;;495.87;392.73;;;;;;;10.17;100.00;97061.59;4982826;28;20054;-60
2022/02/17 04:38:07;;;;;;;496.20;387.03;;;;;;;10.06;100.00;97046.63;4986511;28;20038;-59
2022/02/17 04:43:17;;;;;;;498.60;388.57;;;;;;;9.97;100.00;97029.94;4984496;28;20108;-59
2022/02/17 04:45:42;;;;;;;496.07;386.93;;;;;;;9.90;100.00;97013.19;4984870;28;20046;-58
2022/02/17 04:48:07;;;;;;;492.77;372.80;;;;;;;9.89;100.00;97014.06;4990048;28;20133;-60
2022/02/17 04:50:33;;;;;;;492.37;370.00;;;;;;;9.77;100.00;96995.84;4986687;28;20030;-58
2022/02/17 04:52:59;;;;;;;493.20;374.57;;;;;;;9.65;100.00;96994.63;4983803;28;20046;-57
2022/02/17 04:55:24;;;;;;;489.93;359.90;;;;;;;9.64;100.00;96992.97;4988220;28;20041;-59
2022/02/17 04:57:50;;;;;;;490.30;361.37;;;;;;;9.62;100.00;96993.03;4994823;28;20033;-58
2022/02/17 05:00:15;;;;;;;492.37;368.90;;;;;;;9.72;100.00;97011.38;4980830;28;20049;-59
2022/02/17 05:02:41;;;;;;;491.27;369.00;;;;;;;9.82;100.00;97007.56;4975094;28;20072;-59
2022/02/17 05:05:07;;;;;;;491.70;363.43;;;;;;;10.08;100.00;97003.88;4983768;28;20148;-58
2022/02/17 05:07:32;;;;;;;492.97;366.37;;;;;;;10.14;100.00;96985.72;4986549;28;20072;-58
2022/02/17 05:09:57;;;;;;;494.03;375.90;;;;;;;10.34;100.00;97010.47;4986087;28;20038;-57
2022/02/17 05:12:23;;;;;;;494.03;371.90;;;;;;;10.45;100.00;97021.06;4990014;28;20065;-58
2022/02/17 05:14:48;;;;;;;496.03;385.43;;;;;;;10.53;100.00;97024.94;4982458;28;20141;-59
2022/02/17 05:17:14;;;;;;;496.20;386.27;;;;;;;10.62;100.00;97023.72;4985635;28;20046;-59
2022/02/17 05:19:39;;;;;;;498.47;397.93;;;;;;;10.73;100.00;97002.75;4986019;28;20261;-59
2022/02/17 05:22:05;;;;;;;499.20;401.53;;;;;;;10.67;100.00;96992.75;4982036;28;20954;-59
2022/02/17 05:24:30;;;;;;;499.70;400.43;;;;;;;10.82;100.00;96984.38;4985945;28;20039;-58
2022/02/17 05:26:55;;;;;;;500.97;408.10;;;;;;;10.74;100.00;96953.94;4987070;28;20456;-59
2022/02/17 05:29:21;;;;;;;500.67;407.80;;;;;;;10.78;100.00;96972.56;4992236;28;20038;-59
2022/02/17 05:31:47;;;;;;;503.03;417.57;;;;;;;10.91;100.00;96960.84;4985030;28;20559;-59
2022/02/17 05:34:12;;;;;;;505.10;429.00;;;;;;;10.89;100.00;96963.50;4998860;28;20050;-58
2022/02/17 05:36:38;;;;;;;505.20;425.70;;;;;;;10.93;100.00;96961.63;5005243;28;20034;-57
2022/02/17 05:39:04;;;;;;;506.30;431.03;;;;;;;11.05;100.00;96960.19;5003558;28;20038;-58
2022/02/17 05:41:30;;;;;;;506.80;431.67;;;;;;;11.03;100.00;96969.72;5002196;28;20135;-58
2022/02/17 05:43:56;;;;;;;505.80;431.13;;;;;;;11.02;99.61;96952.66;5000886;28;20468;-58
2022/02/17 05:46:22;;;;;;;505.17;433.10;;;;;;;10.92;99.19;96927.47;5003267;28;20150;-56
2022/02/17 05:48:47;;;;;;;505.83;432.77;;;;;;;10.83;98.97;96927.06;4998562;28;20074;-59
2022/02/17 05:51:17;;;;;;;507.83;438.43;;;;;;;10.63;99.28;96933.13;4999237;28;20046;-58
2022/02/17 05:53:43;;;;;;;505.90;437.57;;;;;;;10.72;99.29;96937.81;5000897;28;20065;-57
2022/02/17 05:56:09;;;;;;;509.13;436.67;;;;;;;10.68;98.14;96941.44;5003845;28;20487;-58
2022/02/17 05:58:34;;;;;;;504.93;424.13;;;;;;;10.68;97.79;96936.31;4999267;28;20596;-58
2022/02/17 06:01:00;;;;;;;503.23;424.87;;;;;;;10.56;96.99;96946.28;5004108;28;20078;-57
2022/02/17 06:03:26;;;;;;;504.20;425.53;;;;;;;10.58;97.29;96960.69;5006111;28;20098;-58
2022/02/17 06:05:51;;;;;;;502.20;416.70;;;;;;;10.40;98.28;96949.53;5006731;28;20037;-60
2022/02/17 06:08:16;;;;;;;503.20;421.23;;;;;;;10.34;100.00;96949.00;5000747;28;20041;-60
2022/02/17 06:10:43;;;;;;;503.37;415.30;;;;;;;10.39;99.64;96958.16;5002092;28;20038;-62
2022/02/17 06:13:09;;;;;;;503.00;405.53;;;;;;;10.43;98.55;96969.91;5006181;28;20097;-55
2022/02/17 06:15:36;;;;;;;500.00;402.37;;;;;;;10.40;99.56;96964.06;5004263;28;20452;-59
2022/02/17 06:18:02;;;;;;;499.47;399.97;;;;;;;10.45;97.78;96939.91;5000961;28;20085;-60
2022/02/17 06:20:28;;;;;;;498.87;404.77;;;;;;;10.39;98.52;96963.28;5004860;28;20052;-60
2022/02/17 06:22:53;;;;;;;497.73;394.87;;;;;;;10.40;98.72;96946.97;5009037;28;20247;-59
2022/02/17 06:25:19;;;;;;;498.13;398.70;;;;;;;10.38;97.88;96935.97;5013023;28;20110;-58
2022/02/17 06:27:46;;;;;;;500.03;403.80;;;;;;;10.41;97.92;96929.88;5002529;28;20581;-60
2022/02/17 06:30:11;;;;;;;497.90;395.60;;;;;;;10.40;98.71;96952.09;5002639;28;20038;-59
2022/02/17 06:32:48;;;;;;;499.93;399.80;;;;;;;10.49;96.32;96948.28;5003405;28;20050;-59
2022/02/17 06:35:17;;;;;;;499.83;405.70;;;;;;;10.42;96.67;96923.88;5006704;28;20050;-58
2022/02/17 06:37:43;;;;;;;498.57;398.87;;;;;;;10.30;98.12;96932.09;5002072;28;20042;-59
2022/02/17 06:40:09;;;;;;;499.47;399.93;;;;;;;10.48;97.54;96913.34;5000507;28;20523;-60
2022/02/17 06:42:35;;;;;;;499.50;398.87;;;;;;;10.48;98.81;96900.53;5002640;28;20096;-59
2022/02/17 06:45:00;;;;;;;501.37;404.73;;;;;;;10.47;100.00;96825.41;5001655;28;20025;-59
2022/02/17 06:47:25;;;;;;;501.93;409.10;;;;;;;11.14;100.00;96898.22;5003576;28;21029;-58
2022/02/17 06:49:51;;;;;;;502.57;419.73;;;;;;;11.15;100.00;96890.47;5003514;28;20030;-57
2022/02/17 06:52:16;;;;;;;503.57;427.90;;;;;;;12.06;100.00;96914.03;5007623;28;20518;-59
2022/02/17 06:54:42;;;;;;;543.67;486.33;;;;;;;14.32;88.03;96889.94;5003878;28;20649;-59
2022/02/17 06:57:07;;;;;;;585.60;527.20;;;;;;;14.57;84.36;96883.19;5003827;28;20062;-59
2022/02/17 06:59:33;;;;;;;615.80;556.80;;;;;;;14.82;82.01;96866.16;5005133;28;20030;-55
2022/02/17 07:01:59;;;;;;;647.20;587.53;;;;;;;15.20;77.09;96866.25;5008020;28;20551;-57
2022/02/17 07:04:24;;;;;;;675.93;615.43;;;;;;;15.33;74.81;96867.91;5000787;28;20038;-58
2022/02/17 07:06:50;;;;;;;693.00;632.13;;;;;;;15.50;73.99;96890.06;5002687;28;20038;-58
2022/02/17 07:09:15;;;;;;;705.77;644.57;;;;;;;15.80;70.64;96876.88;5007052;28;20041;-57
2022/02/17 07:11:41;;;;;;;718.70;657.40;;;;;;;15.83;69.15;96874.06;5005182;28;20096;-57
2022/02/17 07:14:09;;;;;;;739.40;677.43;;;;;;;15.91;67.78;96882.94;5000797;28;20030;-58
2022/02/17 07:16:35;;;;;;;744.77;682.53;;;;;;;16.07;65.95;96869.81;4998340;28;20037;-59
2022/02/17 07:19:01;;;;;;;748.20;685.90;;;;;;;16.26;63.31;96859.00;5002884;28;20037;-59
2022/02/17 07:21:26;;;;;;;754.80;692.53;;;;;;;16.40;61.96;96846.78;5002007;28;20462;-59
2022/02/17 07:23:52;;;;;;;759.20;697.00;;;;;;;16.34;62.34;96869.63;5004935;28;20049;-57
2022/02/17 07:26:18;;;;;;;761.20;698.83;;;;;;;16.49;60.56;96859.97;5007745;28;20772;-58
2022/02/17 07:28:44;;;;;;;765.23;702.63;;;;;;;16.36;60.45;96852.25;4987324;28;20045;-57
2022/02/17 07:31:12;;;;;;;773.47;710.80;;;;;;;16.42;59.77;96860.41;5006469;28;20041;-58
2022/02/17 07:33:38;;;;;;;767.73;705.30;;;;;;;16.41;59.42;96860.53;5000808;28;20046;-60
2022/02/17 07:36:06;;;;;;;773.43;710.57;;;;;;;16.52;57.61;96867.50;5004116;28;20674;-60
2022/02/17 07:38:31;;;;;;;765.47;703.13;;;;;;;16.56;56.35;96920.69;5007273;28;20492;-60
2022/02/17 07:40:57;;;;;;;778.77;715.93;;;;;;;16.58;55.80;96878.31;5006636;28;20112;-57
2022/02/17 07:43:23;;;;;;;778.13;715.43;;;;;;;16.58;54.29;96886.06;5003999;28;20045;-62
2022/02/17 07:45:49;;;;;;;792.03;728.73;;;;;;;16.65;52.98;96891.63;5005925;28;20043;-57
2022/02/17 07:48:15;;;;;;;799.80;736.30;;;;;;;16.64;52.54;96897.72;5005871;28;20041;-57
2022/02/17 07:50:40;;;;;;;782.57;719.83;;;;;;;16.72;50.54;96852.25;5004624;28;20519;-59
2022/02/17 07:53:06;;;;;;;800.27;737.03;;;;;;;16.85;50.21;96862.53;5005960;28;20519;-59
2022/02/17 07:55:31;;;;;;;795.73;732.67;;;;;;;16.89;49.78;96876.91;5008074;28;20129;-59
2022/02/17 07:58:01;;;;;;;797.80;734.60;;;;;;;16.90;49.09;96875.97;5005025;28;20391;-61
2022/02/17 08:00:28;;;;;;;793.47;730.60;;;;;;;17.12;47.49;96870.91;5004518;28;20082;-59
2022/02/17 08:02:54;;;;;;;708.30;648.80;;;;;;;17.12;47.98;96862.31;5005835;28;20457;-60
2022/02/17 08:05:19;;;;;;;747.37;686.33;;;;;;;17.12;47.55;96826.88;5003859;28;20049;-60
2022/02/17 08:07:44;;;;;;;727.03;666.97;;;;;;;17.07;47.76;96826.38;5004364;28;20491;-60
2022/02/17 08:10:10;;;;;;;725.60;665.60;;;;;;;17.24;46.70;96792.28;5006040;28;20041;-60
2022/02/17 08:12:40;;;;;;;753.37;692.23;;;;;;;17.31;46.61;96834.91;5006571;28;20380;-59
2022/02/17 08:15:06;;;;;;;738.07;677.07;;;;;;;17.31;46.05;96847.88;5009423;28;20127;-59
2022/02/17 08:17:31;;;;;;;755.80;695.03;;;;;;;17.38;45.77;96862.97;5005576;28;20508;-57
2022/02/17 08:19:56;;;;;;;737.10;676.73;;;;;;;17.49;45.67;96857.81;5008222;28;20042;-59
2022/02/17 08:22:22;;;;;;;760.23;699.07;;;;;;;17.60;45.17;96858.69;5005382;28;20027;-59
2022/02/17 08:24:47;;;;;;;784.60;722.07;;;;;;;17.71;45.13;96876.84;5000601;28;20207;-59
2022/02/17 08:27:13;;;;;;;799.07;736.20;;;;;;;17.76;44.66;96871.31;5004360;28;20037;-59
2022/02/17 08:29:38;;;;;;;800.30;737.67;;;;;;;17.82;44.30;96878.66;5003896;28;20050;-59
2022/02/17 08:32:04;;;;;;;761.20;700.13;;;;;;;17.86;44.66;96851.53;5004405;28;20137;-61
2022/02/17 08:34:29;;;;;;;784.13;722.40;;;;;;;17.93;44.53;96847.53;5002406;28;20066;-59
2022/02/17 08:36:55;;;;;;;803.10;740.37;;;;;;;17.98;43.79;96868.75;5001040;28;20555;-61
2022/02/17 08:39:20;;;;;;;809.03;746.17;;;;;;;18.00;43.13;96850.47;5003330;28;20148;-59
2022/02/17 08:41:45;;;;;;;815.70;752.47;;;;;;;18.14;43.33;96848.47;5006211;28;20412;-60
2022/02/17 08:44:11;;;;;;;816.10;753.10;;;;;;;18.28;43.02;96875.94;5002435;28;20492;-60
2022/02/17 08:46:37;;;;;;;836.70;772.73;;;;;;;18.27;42.97;96856.09;5001037;28;20037;-60
2022/02/17 08:49:03;;;;;;;832.57;768.87;;;;;;;18.38;42.52;96883.78;5004169;28;20045;-60
2022/02/17 08:51:29;;;;;;;752.80;693.17;;;;;;;18.30;42.20;96840.28;5004770;28;20046;-60
2022/02/17 08:53:57;;;;;;;782.30;721.30;;;;;;;18.45;41.58;96885.81;5003209;28;20038;-59
2022/02/17 08:56:23;;;;;;;792.40;731.13;;;;;;;18.49;41.82;96868.22;5000493;28;20049;-59
2022/02/17 08:58:50;;;;;;;785.43;724.47;;;;;;;18.49;41.93;96869.06;5000792;28;20046;-61
2022/02/17 09:01:15;;;;;;;740.03;681.17;;;;;;;18.43;41.36;96835.78;5005139;28;20392;-60
2022/02/17 09:03:41;;;;;;;766.33;706.63;;;;;;;18.47;40.68;96813.00;5002960;28;20046;-60
2022/02/17 09:06:06;;;;;;;753.10;693.80;;;;;;;18.53;41.43;96867.91;5000717;28;20110;-62
2022/02/17 09:08:32;;;;;;;765.67;705.87;;;;;;;18.68;40.94;96843.31;5001431;28;20072;-60
2022/02/17 09:10:57;;;;;;;754.17;694.83;;;;;;;18.64;41.52;96859.25;5004102;28;20038;-58
2022/02/17 09:13:23;;;;;;;748.90;689.77;;;;;;;18.79;41.35;96852.84;5009361;28;20048;-60
2022/02/17 09:15:49;;;;;;;761.07;701.53;;;;;;;18.91;41.10;96859.66;5002904;28;20388;-60
2022/02/17 09:18:14;;;;;;;758.03;698.80;;;;;;;18.83;40.64;96849.06;4998221;28;20038;-60
2022/02/17 09:20:40;;;;;;;763.33;703.80;;;;;;;18.74;41.19;96852.38;5003735;28;20042;-58
2022/02/17 09:23:06;;;;;;;756.37;697.27;;;;;;;18.78;40.66;96866.78;5009891;28;20902;-59
2022/02/17 09:25:32;;;;;;;767.50;707.90;;;;;;;18.70;40.21;96849.22;5001700;28;20041;-60
2022/02/17 09:27:58;;;;;;;828.53;764.23;;;;;;;18.68;40.03;96868.44;4999706;28;20107;-61
2022/02/17 09:30:24;;;;;;;788.53;727.07;;;;;;;18.95;39.97;96850.66;5001724;28;20054;-60
2022/02/17 09:32:49;;;;;;;786.07;724.17;;;;;;;19.07;39.65;96828.03;5007167;28;20053;-58
2022/02/17 09:35:15;;;;;;;834.20;770.43;;;;;;;19.11;39.03;96826.84;5002957;28;20088;-60
2022/02/17 09:37:40;;;;;;;801.27;738.70;;;;;;;19.09;39.09;96846.94;5000687;28;20046;-60
2022/02/17 09:40:06;;;;;;;794.53;731.60;;;;;;;19.07;39.46;96831.47;5007805;28;20042;-59
2022/02/17 09:42:37;;;;;;;844.53;780.50;;;;;;;19.06;39.69;96867.94;5003666;28;20042;-59
2022/02/17 09:45:08;;;;;;;796.73;733.30;;;;;;;18.93;38.89;96875.91;5000001;28;20049;-59
2022/02/17 09:47:34;;;;;;;849.37;785.23;;;;;;;18.97;38.65;96855.72;5000862;28;20046;-58
2022/02/17 09:50:00;;;;;;;788.27;727.10;;;;;;;19.17;38.82;96867.94;5006811;28;20056;-59
2022/02/17 09:52:27;;;;;;;787.43;726.43;;;;;;;19.19;38.10;96868.59;4999128;28;20037;-58
2022/02/17 09:54:54;;;;;;;782.03;721.10;;;;;;;19.25;38.85;96880.28;4999942;28;20038;-59
2022/02/17 09:57:23;;;;;;;780.73;719.77;;;;;;;19.04;39.39;96881.09;5006289;28;20042;-58
2022/02/17 09:59:48;;;;;;;792.57;731.57;;;;;;;19.10;39.64;96872.78;5007444;28;20530;-58
2022/02/17 10:02:22;;;;;;;800.43;739.37;;;;;;;19.03;38.69;96848.25;5002149;28;20047;-59
2022/02/17 10:04:53;;;;;;;796.30;735.28;;;;;;;19.15;39.82;96849.84;4999698;28;20764;-58
2022/02/17 10:07:31;;;;;;;797.10;736.10;;;;;;;19.11;40.02;96860.63;5007599;28;20092;-58
2022/02/17 10:10:08;;;;;;;782.23;721.73;;;;;;;19.14;40.94;96907.13;5008413;28;20065;-58
2022/02/17 10:12:54;;;;;;;793.40;732.70;;;;;;;18.45;45.59;96897.97;5004861;28;20140;-59
2022/02/17 10:15:36;;;;;;;758.13;698.33;;;;;;;17.68;48.64;96975.59;5002537;28;20532;-58
2022/02/17 10:18:05;;;;;;;743.63;684.17;;;;;;;16.86;52.82;96942.69;5001637;28;20052;-60
2022/02/17 10:20:55;;;;;;;735.87;676.47;;;;;;;16.38;57.94;96972.78;5002220;28;20628;-60
2022/02/17 10:23:22;;;;;;;695.90;637.77;;;;;;;15.95;68.33;96976.63;4997718;28;20044;-60
2022/02/17 10:26:02;;;;;;;657.73;600.43;;;;;;;15.67;74.16;96979.38;4999817;28;20510;-57
2022/02/17 10:28:29;;;;;;;649.10;592.27;;;;;;;15.39;84.96;96995.81;5006278;28;20046;-58
2022/02/17 10:30:56;;;;;;;644.30;587.20;;;;;;;15.12;89.25;97000.97;5003655;28;20398;-59
2022/02/17 10:33:22;;;;;;;632.17;575.37;;;;;;;15.02;94.48;96998.13;4996910;28;20049;-58
2022/02/17 10:35:52;;;;;;;616.30;559.77;;;;;;;14.90;97.65;96982.59;5005495;28;20048;-58
2022/02/17 10:38:19;;;;;;;613.60;557.23;;;;;;;14.84;95.70;97013.97;5008668;28;20037;-55
2022/02/17 10:40:50;;;;;;;607.90;551.77;;;;;;;14.96;94.92;97001.13;4996934;28;20285;-58
2022/02/17 10:43:15;;;;;;;600.07;544.17;;;;;;;14.97;94.57;97007.13;5001312;28;20253;-60
2022/02/17 10:45:44;;;;;;;599.80;543.77;;;;;;;15.00;96.84;97014.66;5003938;28;20326;-58
2022/02/17 10:48:16;;;;;;;613.37;557.07;;;;;;;14.82;100.00;97024.38;5004138;28;20042;-59
2022/02/17 10:50:43;;;;;;;603.80;547.77;;;;;;;14.72;100.00;97031.03;5002340;28;20183;-58
2022/02/17 10:53:14;;;;;;;598.57;542.67;;;;;;;14.60;100.00;97032.59;4998911;28;20315;-57
2022/02/17 10:55:50;;;;;;;582.00;526.53;;;;;;;14.12;100.00;97040.66;5005803;28;20301;-58
2022/02/17 10:58:16;;;;;;;584.30;528.80;;;;;;;13.80;100.00;97037.34;5004709;28;20297;-57